createdAt,value
2023-02-14T00:01:46.484Z,48.25
2023-02-14T00:04:13.984Z,47.81
2023-02-14T00:06:41.305Z,48.22
2023-02-14T00:09:10.955Z,47.41
2023-02-14T00:11:38.858Z,47.90
2023-02-14T00:14:24.828Z,47.77
2023-02-14T00:16:52.223Z,47.34
2023-02-14T00:19:20.279Z,48.34
2023-02-14T00:21:47.980Z,47.71
2023-02-14T00:24:16.514Z,49.11
2023-02-14T00:26:43.683Z,48.72
2023-02-14T00:29:11.774Z,47.80
2023-02-14T00:31:39.523Z,47.76
2023-02-14T00:34:06.810Z,48.15
2023-02-14T00:36:34.191Z,47.26
2023-02-14T00:39:05.032Z,47.58
2023-02-14T00:41:32.396Z,47.36
2023-02-14T00:43:59.823Z,47.29
2023-02-14T00:46:27.394Z,47.09
2023-02-14T00:48:55.832Z,47.51
2023-02-14T00:51:23.215Z,46.60
2023-02-14T00:53:51.086Z,46.26
2023-02-14T00:56:18.466Z,47.36
2023-02-14T00:58:45.846Z,46.08
2023-02-14T01:01:13.545Z,45.81
2023-02-14T01:03:40.781Z,45.81
2023-02-14T01:06:08.059Z,47.11
2023-02-14T01:08:35.551Z,45.95
2023-02-14T01:11:21.600Z,45.71
2023-02-14T01:13:49.354Z,46.23
2023-02-14T01:16:21.031Z,45.71
2023-02-14T01:18:48.511Z,45.75
2023-02-14T01:21:27.044Z,46.68
2023-02-14T01:23:57.311Z,46.45
2023-02-14T01:26:25.213Z,46.13
2023-02-14T01:28:52.791Z,46.25
2023-02-14T01:31:24.720Z,46.09
2023-02-14T01:33:51.986Z,46.15
2023-02-14T01:36:24.311Z,45.95
2023-02-14T01:38:52.421Z,46.02
2023-02-14T01:41:20.151Z,45.57
2023-02-14T01:43:50.028Z,45.68
2023-02-14T01:46:17.335Z,45.52
2023-02-14T01:48:44.798Z,46.16
2023-02-14T01:51:13.189Z,47.69
2023-02-14T01:53:40.328Z,47.35
2023-02-14T01:56:08.475Z,46.56
2023-02-14T01:58:36.550Z,46.13
2023-02-14T02:01:04.125Z,47.78
2023-02-14T02:03:34.540Z,46.49
2023-02-14T02:06:13.953Z,46.23
2023-02-14T02:08:48.549Z,46.49
2023-02-14T02:11:15.720Z,46.78
2023-02-14T02:13:43.236Z,45.67
2023-02-14T02:16:34.239Z,45.42
2023-02-14T02:19:10.469Z,45.22
2023-02-14T02:22:07.481Z,44.92
2023-02-14T02:24:36.557Z,45.57
2023-02-14T02:27:08.586Z,44.51
2023-02-14T02:29:40.939Z,44.85
2023-02-14T02:32:14.428Z,45.04
2023-02-14T02:35:00.352Z,44.78
2023-02-14T02:37:34.073Z,44.71
2023-02-14T02:40:04.810Z,44.63
2023-02-14T02:42:45.994Z,44.62
2023-02-14T02:45:20.606Z,45.54
2023-02-14T02:47:53.602Z,45.19
2023-02-14T02:50:47.943Z,44.77
2023-02-14T02:53:26.263Z,44.52
2023-02-14T02:56:20.224Z,45.00
2023-02-14T02:58:51.532Z,44.68
2023-02-14T03:01:21.090Z,44.65
2023-02-14T03:04:09.058Z,45.09
2023-02-14T03:06:36.207Z,45.00
2023-02-14T03:09:13.262Z,45.19
2023-02-14T03:11:41.712Z,45.76
2023-02-14T03:14:16.047Z,46.19
2023-02-14T03:17:04.845Z,46.31
2023-02-14T03:20:10.371Z,47.40
2023-02-14T03:22:40.586Z,46.63
2023-02-14T03:25:14.092Z,46.30
2023-02-14T03:27:48.710Z,46.20
2023-02-14T03:30:19.201Z,45.80
2023-02-14T03:32:58.654Z,45.52
2023-02-14T03:35:29.033Z,46.00
2023-02-14T03:38:05.577Z,45.88
2023-02-14T03:40:43.032Z,45.61
2023-02-14T03:43:14.215Z,46.28
2023-02-14T03:45:51.571Z,47.13
2023-02-14T03:48:19.006Z,46.84
2023-02-14T03:50:46.574Z,46.82
2023-02-14T03:53:13.744Z,46.64
2023-02-14T03:55:59.859Z,48.17
2023-02-14T03:58:28.583Z,47.10
2023-02-14T04:00:58.075Z,46.80
2023-02-14T04:03:25.850Z,46.51
2023-02-14T04:05:53.027Z,47.26
2023-02-14T04:08:20.740Z,47.33
2023-02-14T04:10:48.402Z,47.73
2023-02-14T04:13:15.508Z,47.19
2023-02-14T04:15:42.709Z,46.90
2023-02-14T04:18:45.706Z,46.98
2023-02-14T04:21:12.858Z,50.00
2023-02-14T04:23:40.403Z,47.70
2023-02-14T04:26:07.574Z,49.55
2023-02-14T04:28:34.747Z,48.22
2023-02-14T04:31:03.458Z,48.30
2023-02-14T04:33:31.139Z,48.35
2023-02-14T04:35:58.341Z,48.89
2023-02-14T04:38:25.767Z,50.46
2023-02-14T04:40:52.948Z,49.61
2023-02-14T04:43:20.097Z,48.73
2023-02-14T04:45:47.716Z,48.32
2023-02-14T04:48:14.879Z,48.85
2023-02-14T04:50:41.989Z,48.26
2023-02-14T04:53:09.371Z,47.32
2023-02-14T04:55:38.339Z,47.04
2023-02-14T04:58:05.672Z,46.85
2023-02-14T05:00:33.102Z,47.00
2023-02-14T05:03:00.330Z,46.79
2023-02-14T05:05:27.516Z,46.65
2023-02-14T05:07:54.944Z,46.77
2023-02-14T05:10:22.163Z,46.42
2023-02-14T05:12:49.333Z,46.64
2023-02-14T05:15:16.822Z,46.75
2023-02-14T05:17:43.976Z,46.63
2023-02-14T05:20:11.226Z,46.77
2023-02-14T05:22:38.657Z,46.45
2023-02-14T05:25:06.272Z,46.45
2023-02-14T05:27:33.444Z,46.11
2023-02-14T05:30:00.889Z,46.13
2023-02-14T05:32:28.066Z,46.14
2023-02-14T05:34:55.253Z,46.06
2023-02-14T05:37:22.750Z,45.89
2023-02-14T05:39:49.932Z,45.62
2023-02-14T05:42:17.281Z,45.70
2023-02-14T05:44:44.686Z,45.97
2023-02-14T05:47:13.177Z,45.92
2023-02-14T05:49:40.511Z,45.98
2023-02-14T05:52:07.946Z,45.80
2023-02-14T05:54:35.180Z,46.07
2023-02-14T05:57:02.295Z,45.34
2023-02-14T05:59:29.709Z,45.38
2023-02-14T06:01:57.000Z,45.78
2023-02-14T06:04:24.553Z,45.75
2023-02-14T06:06:51.737Z,45.94
2023-02-14T06:09:19.900Z,46.41
2023-02-14T06:11:47.373Z,45.73
2023-02-14T06:14:14.559Z,45.63
2023-02-14T06:16:41.804Z,45.34
2023-02-14T06:19:09.289Z,46.32
2023-02-14T06:21:36.471Z,46.43
2023-02-14T06:24:03.643Z,45.81
2023-02-14T06:26:31.186Z,45.62
2023-02-14T06:28:58.802Z,45.80
2023-02-14T06:31:26.157Z,45.70
2023-02-14T06:33:53.614Z,45.95
2023-02-14T06:36:21.702Z,45.70
2023-02-14T06:38:49.086Z,45.55
2023-02-14T06:41:17.259Z,45.05
2023-02-14T06:43:45.264Z,44.85
2023-02-14T06:46:12.486Z,44.25
2023-02-14T06:48:39.931Z,44.43
2023-02-14T06:51:07.267Z,44.50
2023-02-14T06:53:34.533Z,44.62
2023-02-14T06:56:01.971Z,44.26
2023-02-14T06:58:29.098Z,44.73
2023-02-14T07:00:56.581Z,45.07
2023-02-14T07:03:24.250Z,44.73
2023-02-14T07:05:51.755Z,44.14
2023-02-14T07:08:19.032Z,44.39
2023-02-14T07:10:46.547Z,45.10
2023-02-14T07:13:13.678Z,44.48
2023-02-14T07:15:40.848Z,44.79
2023-02-14T07:18:11.712Z,44.14
2023-02-14T07:20:38.876Z,44.17
2023-02-14T07:23:06.050Z,42.84
2023-02-14T07:25:33.618Z,43.35
2023-02-14T07:28:00.770Z,43.45
2023-02-14T07:30:28.006Z,43.87
2023-02-14T07:32:55.442Z,43.90
2023-02-14T07:35:22.576Z,44.56
2023-02-14T07:37:50.084Z,43.55
2023-02-14T07:40:17.743Z,42.04
2023-02-14T07:42:44.883Z,42.21
2023-02-14T07:45:27.216Z,40.63
2023-02-14T07:47:55.188Z,40.73
2023-02-14T07:50:22.761Z,39.85
2023-02-14T07:52:49.952Z,38.99
2023-02-14T07:55:17.448Z,37.14
2023-02-14T07:57:44.599Z,34.83
2023-02-14T08:00:12.061Z,33.51
2023-02-14T08:02:39.202Z,32.90
2023-02-14T08:05:06.708Z,33.07
2023-02-14T08:07:33.993Z,32.24
2023-02-14T08:10:01.136Z,31.21
2023-02-14T08:12:47.112Z,32.80
2023-02-14T08:15:32.987Z,33.54
2023-02-14T08:18:00.422Z,32.38
2023-02-14T08:20:27.648Z,33.28
2023-02-14T08:22:55.006Z,33.61
2023-02-14T08:25:22.465Z,33.19
2023-02-14T08:27:49.657Z,32.20
2023-02-14T08:30:16.935Z,31.83
2023-02-14T08:32:44.420Z,30.82
2023-02-14T08:35:11.595Z,30.37
2023-02-14T08:37:38.842Z,27.46
2023-02-14T08:40:06.667Z,25.79
2023-02-14T08:42:33.815Z,28.55
2023-02-14T08:45:01.030Z,29.09
2023-02-14T08:47:28.853Z,30.64
2023-02-14T08:49:56.017Z,31.50
2023-02-14T08:52:23.457Z,32.06
2023-02-14T08:54:50.921Z,32.66
2023-02-14T08:57:18.249Z,32.67
2023-02-14T08:59:45.429Z,32.75
2023-02-14T09:02:13.754Z,32.71
2023-02-14T09:04:41.021Z,33.40
2023-02-14T09:07:08.324Z,34.77
2023-02-14T09:09:35.745Z,35.12
2023-02-14T09:12:07.042Z,35.36
2023-02-14T09:14:37.696Z,36.29
2023-02-14T09:17:05.866Z,37.64
2023-02-14T09:19:33.429Z,38.07
2023-02-14T09:22:00.665Z,39.07
2023-02-14T09:24:28.314Z,39.09
2023-02-14T09:26:57.359Z,39.32
2023-02-14T09:29:24.855Z,39.38
2023-02-14T09:31:55.847Z,39.80
2023-02-14T09:34:42.023Z,38.66
2023-02-14T09:37:31.305Z,38.36
2023-02-14T09:39:58.429Z,38.26
2023-02-14T09:42:42.681Z,37.86
2023-02-14T09:45:14.175Z,38.26
2023-02-14T09:47:50.364Z,37.18
2023-02-14T09:50:52.876Z,37.77
2023-02-14T09:53:20.634Z,37.19
2023-02-14T09:56:06.940Z,37.35
2023-02-14T09:58:35.976Z,37.90
2023-02-14T10:01:16.466Z,37.38
2023-02-14T10:04:02.727Z,37.34
2023-02-14T10:06:45.198Z,37.63
2023-02-14T10:09:16.007Z,37.27
2023-02-14T10:11:43.852Z,37.61
2023-02-14T10:14:12.170Z,37.58
2023-02-14T10:16:47.418Z,35.99
2023-02-14T10:19:23.717Z,36.79
2023-02-14T10:22:11.351Z,35.61
2023-02-14T10:24:40.591Z,35.93
2023-02-14T10:27:11.784Z,35.99
2023-02-14T10:29:38.950Z,35.80
2023-02-14T10:32:07.141Z,37.12
2023-02-14T10:34:39.670Z,35.98
2023-02-14T10:37:06.780Z,35.59
2023-02-14T10:39:46.875Z,36.76
2023-02-14T10:42:20.287Z,35.63
2023-02-14T10:44:59.741Z,34.91
2023-02-14T10:47:29.903Z,35.60
2023-02-14T10:50:18.349Z,35.59
2023-02-14T10:52:53.270Z,35.21
2023-02-14T10:55:31.902Z,35.36
2023-02-14T10:58:00.041Z,35.68
2023-02-14T11:00:28.702Z,36.01
2023-02-14T11:02:59.665Z,35.78
2023-02-14T11:05:34.556Z,36.75
2023-02-14T11:08:02.304Z,36.11
2023-02-14T11:10:31.176Z,35.48
2023-02-14T11:12:58.425Z,35.81
2023-02-14T11:15:27.685Z,35.97
2023-02-14T11:18:07.951Z,35.15
2023-02-14T11:20:35.386Z,36.84
2023-02-14T11:23:02.999Z,35.96
2023-02-14T11:25:30.661Z,35.81
2023-02-14T11:27:59.126Z,35.26
2023-02-14T11:30:28.372Z,35.22
2023-02-14T11:32:56.338Z,35.17
2023-02-14T11:35:26.992Z,34.69
2023-02-14T11:37:55.015Z,33.72
2023-02-14T11:40:28.157Z,33.74
2023-02-14T11:43:12.927Z,33.52
2023-02-14T11:45:44.757Z,34.77
2023-02-14T11:48:37.074Z,35.07
2023-02-14T11:51:06.583Z,34.14
2023-02-14T11:53:45.908Z,33.93
2023-02-14T11:56:13.524Z,34.96
2023-02-14T11:59:03.061Z,33.97
2023-02-14T12:01:30.947Z,33.16
2023-02-14T12:03:59.995Z,33.42
2023-02-14T12:06:30.962Z,33.99
2023-02-14T12:09:17.106Z,33.90
2023-02-14T12:11:54.529Z,33.74
2023-02-14T12:14:22.639Z,32.79
2023-02-14T12:16:55.944Z,35.03
2023-02-14T12:19:41.845Z,33.70
2023-02-14T12:22:08.964Z,34.07
2023-02-14T12:24:37.007Z,34.21
2023-02-14T12:27:07.125Z,33.10
2023-02-14T12:29:38.219Z,33.55
2023-02-14T12:32:25.894Z,32.68
2023-02-14T12:35:06.220Z,32.88
2023-02-14T12:38:02.713Z,33.52
2023-02-14T12:40:38.452Z,34.15
2023-02-14T12:43:15.088Z,33.46
2023-02-14T12:45:49.083Z,34.36
2023-02-14T12:48:34.918Z,33.44
2023-02-14T12:51:08.254Z,33.18
2023-02-14T12:53:44.710Z,32.64
2023-02-14T12:56:11.917Z,33.24
2023-02-14T12:58:47.039Z,33.72
2023-02-14T13:01:16.335Z,34.14
2023-02-14T13:03:54.682Z,35.03
2023-02-14T13:06:29.686Z,36.25
2023-02-14T13:09:04.001Z,35.42
2023-02-14T13:11:34.747Z,33.72
2023-02-14T13:14:05.710Z,34.00
2023-02-14T13:16:50.144Z,33.95
2023-02-14T13:19:26.758Z,34.18
2023-02-14T13:21:53.973Z,34.94
2023-02-14T13:24:22.007Z,33.97
2023-02-14T13:26:49.894Z,34.12
2023-02-14T13:29:18.110Z,34.52
2023-02-14T13:31:45.952Z,35.74
2023-02-14T13:34:13.124Z,35.82
2023-02-14T13:36:40.362Z,36.05
2023-02-14T13:39:07.776Z,35.89
2023-02-14T13:41:35.871Z,35.00
2023-02-14T13:44:05.426Z,35.55
2023-02-14T13:46:32.913Z,35.44
2023-02-14T13:49:00.084Z,34.54
2023-02-14T13:51:43.442Z,34.80
2023-02-14T13:54:21.025Z,35.15
2023-02-14T13:56:48.444Z,35.65
2023-02-14T13:59:48.207Z,36.11
2023-02-14T14:02:29.939Z,35.55
2023-02-14T14:04:57.760Z,35.50
2023-02-14T14:07:30.871Z,35.50
2023-02-14T14:10:02.066Z,35.59
2023-02-14T14:12:29.960Z,37.49
2023-02-14T14:15:06.421Z,37.24
2023-02-14T14:17:37.993Z,37.53
2023-02-14T14:20:20.753Z,38.08
2023-02-14T14:22:51.932Z,36.83
2023-02-14T14:25:31.226Z,36.79
2023-02-14T14:27:58.428Z,36.58
2023-02-14T14:30:28.498Z,36.19
2023-02-14T14:32:55.660Z,35.63
2023-02-14T14:35:24.074Z,36.63
2023-02-14T14:37:52.748Z,36.17
2023-02-14T14:40:33.135Z,35.98
2023-02-14T14:43:01.656Z,35.52
2023-02-14T14:45:29.099Z,35.68
2023-02-14T14:47:56.806Z,35.41
2023-02-14T14:50:25.106Z,35.44
2023-02-14T14:53:12.554Z,36.67
2023-02-14T14:55:41.183Z,35.60
2023-02-14T14:58:28.625Z,35.70
2023-02-14T15:00:56.260Z,35.38
2023-02-14T15:03:25.343Z,35.86
2023-02-14T15:05:52.561Z,35.13
2023-02-14T15:08:32.006Z,35.32
2023-02-14T15:10:59.556Z,35.35
2023-02-14T15:13:57.461Z,35.17
2023-02-14T15:16:28.553Z,34.94
2023-02-14T15:18:59.856Z,35.26
2023-02-14T15:21:27.122Z,35.05
2023-02-14T15:23:56.675Z,35.23
2023-02-14T15:26:28.237Z,35.19
2023-02-14T15:28:59.531Z,35.36
2023-02-14T15:31:39.934Z,35.61
2023-02-14T15:34:07.140Z,35.50
2023-02-14T15:36:34.767Z,35.49
2023-02-14T15:39:03.281Z,35.57
2023-02-14T15:41:30.402Z,35.43
2023-02-14T15:43:57.906Z,35.63
2023-02-14T15:46:28.015Z,35.60
2023-02-14T15:48:55.298Z,35.38
2023-02-14T15:51:24.509Z,35.67
2023-02-14T15:53:53.182Z,35.51
2023-02-14T15:56:22.011Z,35.26
2023-02-14T15:58:49.745Z,35.34
2023-02-14T16:01:20.041Z,35.29
2023-02-14T16:03:49.301Z,35.27
2023-02-14T16:06:29.306Z,35.13
2023-02-14T16:08:58.105Z,35.22
2023-02-14T16:11:35.608Z,35.11
2023-02-14T16:14:21.978Z,35.27
2023-02-14T16:16:58.485Z,35.48
2023-02-14T16:19:45.226Z,35.49
2023-02-14T16:22:13.296Z,35.37
2023-02-14T16:24:42.038Z,35.55
2023-02-14T16:27:09.274Z,35.65
2023-02-14T16:29:36.609Z,35.71
2023-02-14T16:32:16.293Z,35.86
2023-02-14T16:34:45.558Z,35.98
2023-02-14T16:37:18.967Z,37.01
2023-02-14T16:39:46.114Z,36.85
2023-02-14T16:42:15.034Z,37.04
2023-02-14T16:44:42.267Z,37.05
2023-02-14T16:47:12.987Z,36.77
2023-02-14T16:49:40.788Z,36.69
2023-02-14T16:52:12.933Z,36.93
2023-02-14T16:54:40.369Z,37.18
2023-02-14T16:57:07.634Z,37.46
2023-02-14T16:59:34.961Z,37.51
2023-02-14T17:02:02.565Z,37.88
2023-02-14T17:04:29.789Z,38.06
2023-02-14T17:06:57.478Z,37.95
2023-02-14T17:09:27.256Z,38.08
2023-02-14T17:11:54.690Z,38.05
2023-02-14T17:14:23.043Z,37.95
2023-02-14T17:16:50.881Z,38.29
2023-02-14T17:19:18.198Z,38.29
2023-02-14T17:21:45.573Z,38.56
2023-02-14T17:24:12.992Z,38.93
2023-02-14T17:26:40.144Z,39.77
2023-02-14T17:29:07.507Z,39.40
2023-02-14T17:31:35.174Z,39.50
2023-02-14T17:34:02.633Z,39.13
2023-02-14T17:36:30.094Z,39.68
2023-02-14T17:38:57.716Z,39.98
2023-02-14T17:41:25.678Z,40.38
2023-02-14T17:43:54.767Z,40.42
2023-02-14T17:46:22.447Z,39.80
2023-02-14T17:48:52.659Z,39.28
2023-02-14T17:51:20.456Z,39.67
2023-02-14T17:53:48.417Z,40.11
2023-02-14T17:56:22.743Z,40.55
2023-02-14T17:58:51.431Z,40.73
2023-02-14T18:01:22.706Z,39.87
2023-02-14T18:03:52.085Z,40.14
2023-02-14T18:06:19.538Z,39.81
2023-02-14T18:08:49.764Z,40.45
2023-02-14T18:11:17.878Z,40.38
2023-02-14T18:13:45.497Z,40.96
2023-02-14T18:16:13.901Z,41.03
2023-02-14T18:18:41.555Z,40.86
2023-02-14T18:21:09.988Z,40.20
2023-02-14T18:23:37.533Z,40.32
2023-02-14T18:26:10.442Z,40.26
2023-02-14T18:28:38.022Z,41.22
2023-02-14T18:31:06.847Z,40.47
2023-02-14T18:33:34.303Z,40.88
2023-02-14T18:36:02.821Z,40.87
2023-02-14T18:38:30.366Z,41.57
2023-02-14T18:41:01.637Z,40.72
2023-02-14T18:43:29.276Z,40.39
2023-02-14T18:46:02.107Z,40.55
2023-02-14T18:48:29.851Z,40.53
2023-02-14T18:51:04.106Z,40.32
2023-02-14T18:53:31.270Z,41.33
2023-02-14T18:55:58.856Z,41.85
2023-02-14T18:58:26.270Z,42.20
2023-02-14T19:00:53.515Z,42.10
2023-02-14T19:03:21.176Z,43.13
2023-02-14T19:05:48.590Z,42.27
2023-02-14T19:08:19.558Z,43.24
2023-02-14T19:10:47.202Z,42.04
2023-02-14T19:13:14.590Z,42.19
2023-02-14T19:15:44.786Z,42.77
2023-02-14T19:18:15.218Z,42.83
2023-02-14T19:20:42.634Z,42.90
2023-02-14T19:23:09.944Z,43.19
2023-02-14T19:25:37.941Z,43.21
2023-02-14T19:28:06.781Z,42.86
2023-02-14T19:30:34.669Z,42.36
2023-02-14T19:33:02.321Z,42.78
2023-02-14T19:35:29.756Z,43.69
2023-02-14T19:37:58.950Z,43.72
2023-02-14T19:40:26.608Z,44.37
2023-02-14T19:42:54.016Z,45.90
2023-02-14T19:45:21.397Z,45.18
2023-02-14T19:47:49.614Z,44.91
2023-02-14T19:50:17.724Z,45.22
2023-02-14T19:52:44.987Z,44.49
2023-02-14T19:55:20.079Z,44.16
2023-02-14T19:57:50.760Z,44.58
2023-02-14T20:00:18.938Z,44.37
2023-02-14T20:02:48.160Z,44.13
2023-02-14T20:05:15.981Z,43.34
2023-02-14T20:07:43.485Z,42.86
2023-02-14T20:10:11.645Z,43.11
2023-02-14T20:12:39.187Z,44.11
2023-02-14T20:15:10.829Z,44.21
2023-02-14T20:17:39.004Z,44.43
2023-02-14T20:20:07.838Z,43.55
2023-02-14T20:22:36.415Z,42.94
2023-02-14T20:25:05.600Z,43.19
2023-02-14T20:27:33.228Z,43.74
2023-02-14T20:30:00.653Z,43.40
2023-02-14T20:32:28.300Z,43.75
2023-02-14T20:34:57.254Z,44.42
2023-02-14T20:37:25.390Z,44.47
2023-02-14T20:39:53.017Z,43.96
2023-02-14T20:42:20.505Z,43.18
2023-02-14T20:44:48.730Z,43.12
2023-02-14T20:47:17.430Z,44.23
2023-02-14T20:49:44.866Z,43.22
2023-02-14T20:52:13.228Z,42.84
2023-02-14T20:54:40.864Z,43.20
2023-02-14T20:57:08.364Z,43.74
2023-02-14T20:59:37.730Z,43.74
2023-02-14T21:02:05.335Z,43.09
2023-02-14T21:04:32.712Z,42.10
2023-02-14T21:07:03.996Z,42.40
2023-02-14T21:09:32.930Z,42.42
2023-02-14T21:12:00.343Z,42.20
2023-02-14T21:14:27.692Z,42.10
2023-02-14T21:16:56.497Z,42.93
2023-02-14T21:19:23.998Z,43.19
2023-02-14T21:21:52.303Z,43.64
2023-02-14T21:24:19.994Z,43.10
2023-02-14T21:26:47.159Z,42.67
2023-02-14T21:29:14.545Z,42.77
2023-02-14T21:31:43.069Z,42.26
2023-02-14T21:34:10.346Z,43.04
2023-02-14T21:36:37.709Z,43.38
2023-02-14T21:39:06.138Z,43.41
2023-02-14T21:41:34.056Z,43.24
2023-02-14T21:44:01.759Z,44.37
2023-02-14T21:46:31.084Z,43.89
2023-02-14T21:49:18.218Z,43.28
2023-02-14T21:51:46.483Z,43.72
2023-02-14T21:54:13.915Z,44.68
2023-02-14T21:56:41.554Z,44.30
2023-02-14T21:59:09.738Z,45.29
2023-02-14T22:01:37.966Z,45.21
2023-02-14T22:04:07.805Z,44.90
2023-02-14T22:06:36.007Z,45.85
2023-02-14T22:09:03.453Z,45.88
2023-02-14T22:11:30.976Z,46.09
2023-02-14T22:13:58.875Z,45.99
2023-02-14T22:16:26.089Z,45.42
2023-02-14T22:18:53.492Z,47.43
2023-02-14T22:21:21.712Z,47.11
2023-02-14T22:23:49.002Z,47.11
2023-02-14T22:26:23.838Z,46.53
2023-02-14T22:28:51.653Z,46.81
2023-02-14T22:31:19.248Z,46.63
2023-02-14T22:33:47.012Z,46.07
2023-02-14T22:36:14.433Z,47.27
2023-02-14T22:38:42.285Z,46.37
2023-02-14T22:41:13.423Z,47.56
2023-02-14T22:43:40.700Z,48.23
2023-02-14T22:46:09.698Z,47.96
2023-02-14T22:48:37.221Z,46.78
2023-02-14T22:51:07.472Z,47.84
2023-02-14T22:53:35.035Z,47.34
2023-02-14T22:56:31.448Z,48.03
2023-02-14T22:58:59.554Z,47.22
2023-02-14T23:01:27.004Z,46.48
2023-02-14T23:03:54.825Z,45.65
2023-02-14T23:06:22.748Z,45.54
2023-02-14T23:08:49.953Z,45.41
2023-02-14T23:11:21.296Z,45.15
2023-02-14T23:14:07.042Z,45.03
2023-02-14T23:16:52.742Z,44.69
2023-02-14T23:19:40.102Z,44.84
2023-02-14T23:22:08.845Z,45.40
2023-02-14T23:24:39.268Z,46.00
2023-02-14T23:27:07.087Z,45.93
2023-02-14T23:29:34.389Z,45.73
2023-02-14T23:32:01.942Z,45.07
2023-02-14T23:34:29.597Z,46.23
2023-02-14T23:36:56.751Z,45.24
2023-02-14T23:39:24.191Z,45.50
2023-02-14T23:41:51.462Z,45.67
2023-02-14T23:44:25.226Z,45.50
2023-02-14T23:46:53.511Z,45.60
2023-02-14T23:49:20.841Z,45.67
2023-02-14T23:51:48.454Z,46.30
2023-02-14T23:54:16.156Z,46.50
2023-02-14T23:56:43.554Z,46.31
2023-02-14T23:59:11.239Z,45.95
